Olstykke, Denmark
Current Conditions -  °F | °C
As of 1:20 AM on Sunday 26 Oct 2014 (Local Time) from EKRK Reporting Station
Moderate Fog Moderate Fog  
Wind Chill: 46°   Ceiling: Unl
Heat Index: 46°   Visibility: 0.21mi
Dew Point: 46°   Wind: 2mph
Humidity: 100%   Direction: 180°S
Pressure: 30.09"   Gusts: NA
Location:  55.8°N, 12.16°E
Report Text: EKRK 252320Z AUTO 18002KT 0350NDV R11/P1500N R29/1200VP1500UFG FEW050/// 08/08 Q1019
Loading
Personal Weather Stations






























Interactive Weather Map
Tropical Storm Tracking
New forecast layout! Learn more

10-Day Weather Forecast

Advertisements
Track Severe Weather on mobile